Terminal Aerodrome Forecast
Issued by NWS

Home | Current Version | Previous Version | Text Only | Print | Product List | Glossary On
Versions: 1 2 3 4 5 6 7 8 9 10 11 12 13 14 15 16 17 18 19 20 21 22 23
000
FTUS41 KALY 302320
TAFPSF
TAF
KPSF 302320Z 3100/3124 19010G15KT P6SM SCT080
     FM310300 19011KT P6SM VCSH BKN050
     FM310800 22007KT P6SM VCSH BKN020 OVC040
     FM311300 02008G14KT 3SM -SHRA BR BKN006 OVC012
     FM311700 36007KT P6SM VCSH BKN015 OVC040=

USA.gov is the U.S. government's official web portal to all federal, state and local government web resources and services.